Terminal Aerodrome Forecast
Issued by NWS

Home | Current Version | Previous Version | Text Only | Print | Product List | Glossary On
Versions: 1 2 3 4 5 6 7 8 9 10 11 12
000
FTPA31 PHFO 241136
TAFHMK
TAF
PHMK 241136Z 2412/2512 05012G20KT P6SM VCSH SCT020 BKN035
     FM242000 05015G25KT P6SM SCT020 SCT040 BKN250
     FM250600 05010G18KT P6SM SCT020 SCT040 BKN250=

USA.gov is the U.S. government's official web portal to all federal, state and local government web resources and services.